Time;durP1;ratioP1;P1;durP2;ratioP2;P2;SDS_P1;SDS_P2;PMS_P1;PMS_P2;Temp;Humidity;BMP_temperature;BMP_pressure;BME280_temperature;BME280_humidity;BME280_pressure;Samples;Min_cycle;Max_cycle;Signal;HPM_P1;HPM_P2
2022/01/10 00:02:06;;;;;;;20.70;10.07;;;0.90;99.90;;;;;;5061782;28;20024;-55
2022/01/10 00:04:32;;;;;;;18.63;9.38;;;0.90;99.90;;;;;;5074011;28;20165;-54
2022/01/10 00:06:58;;;;;;;19.73;8.57;;;0.90;99.90;;;;;;5091926;28;20119;-56
2022/01/10 00:09:23;;;;;;;28.52;13.50;;;0.90;99.90;;;;;;5091594;28;20032;-57
2022/01/10 00:11:49;;;;;;;45.17;18.77;;;0.90;99.90;;;;;;5091590;28;20102;-53
2022/01/10 00:14:15;;;;;;;28.90;11.65;;;1.00;99.90;;;;;;5092153;28;20032;-54
2022/01/10 00:16:40;;;;;;;25.60;13.02;;;1.00;99.90;;;;;;5092156;28;20032;-53
2022/01/10 00:19:06;;;;;;;16.88;9.63;;;1.00;99.90;;;;;;5073813;28;20028;-54
2022/01/10 00:21:32;;;;;;;23.23;10.43;;;0.90;99.90;;;;;;5092007;28;20043;-54
2022/01/10 00:23:58;;;;;;;10.57;6.38;;;0.90;99.90;;;;;;5092024;28;20024;-55
2022/01/10 00:26:24;;;;;;;12.30;7.03;;;0.80;99.90;;;;;;5092060;28;20364;-55
2022/01/10 00:28:50;;;;;;;7.45;5.90;;;0.90;99.90;;;;;;5092314;28;20075;-56
2022/01/10 00:31:16;;;;;;;11.18;7.00;;;0.90;99.90;;;;;;5091556;28;20416;-56
2022/01/10 00:33:41;;;;;;;13.00;7.88;;;0.90;99.90;;;;;;5091771;28;20081;-57
2022/01/10 00:36:08;;;;;;;13.68;7.40;;;1.00;99.90;;;;;;5073245;28;20383;-55
2022/01/10 00:38:34;;;;;;;14.73;7.63;;;1.00;99.90;;;;;;5091357;28;20174;-54
2022/01/10 00:41:00;;;;;;;12.48;7.07;;;1.00;99.90;;;;;;5091267;28;20032;-54
2022/01/10 00:43:35;;;;;;;12.98;7.25;;;1.00;99.90;;;;;;5091401;28;20024;-56
2022/01/10 00:46:02;;;;;;;15.10;7.88;;;1.00;99.90;;;;;;5091501;28;20031;-55
2022/01/10 00:48:28;;;;;;;14.60;7.68;;;1.00;99.90;;;;;;5091526;28;20024;-56
2022/01/10 00:50:54;;;;;;;12.70;7.63;;;1.00;99.90;;;;;;5091208;28;20158;-56
2022/01/10 00:53:20;;;;;;;13.98;7.72;;;1.10;99.90;;;;;;5091399;28;20093;-55
2022/01/10 00:55:45;;;;;;;13.27;7.97;;;1.10;99.90;;;;;;5091036;28;20453;-55
2022/01/10 00:58:11;;;;;;;11.98;7.00;;;1.10;99.90;;;;;;5073199;28;20032;-55
2022/01/10 01:00:37;;;;;;;13.02;6.65;;;1.20;99.90;;;;;;5091313;28;20032;-57
2022/01/10 01:03:03;;;;;;;10.70;7.25;;;1.20;99.90;;;;;;5091641;28;20031;-56
2022/01/10 01:05:31;;;;;;;10.48;6.70;;;1.20;99.90;;;;;;5091120;28;20375;-54
2022/01/10 01:08:00;;;;;;;9.73;6.80;;;1.20;99.90;;;;;;5073291;28;20125;-54
2022/01/10 01:16:41;;;;;;;10.75;7.47;;;1.20;99.90;;;;;;5091188;28;20071;-54
2022/01/10 01:24:07;;;;;;;11.35;5.80;;;1.20;99.90;;;;;;5091344;28;20063;-53
2022/01/10 01:26:35;;;;;;;7.53;5.20;;;1.20;99.90;;;;;;5091165;28;20126;-54
2022/01/10 01:29:02;;;;;;;7.80;5.25;;;1.20;99.90;;;;;;5091177;28;20077;-55
2022/01/10 01:31:27;;;;;;;5.68;5.07;;;1.20;99.90;;;;;;5090897;28;20439;-56
2022/01/10 01:33:53;;;;;;;7.18;5.00;;;1.20;99.90;;;;;;5091221;28;20115;-56
2022/01/10 01:36:23;;;;;;;5.80;5.30;;;1.20;99.90;;;;;;5091189;28;20107;-55
2022/01/10 01:38:49;;;;;;;7.43;4.95;;;1.10;99.90;;;;;;5090869;28;20081;-56
2022/01/10 01:43:51;;;;;;;10.52;6.43;;;1.10;99.90;;;;;;5091494;28;20035;-55
2022/01/10 01:46:18;;;;;;;5.18;4.68;;;1.00;99.90;;;;;;5091152;28;20073;-56
2022/01/10 01:48:44;;;;;;;9.48;5.57;;;1.00;99.90;;;;;;5090955;28;20024;-56
2022/01/10 01:51:10;;;;;;;7.50;5.40;;;1.00;99.90;;;;;;5090733;28;20112;-55
2022/01/10 01:53:37;;;;;;;5.38;4.88;;;1.10;99.90;;;;;;5090822;28;20099;-55
2022/01/10 01:56:04;;;;;;;6.88;5.93;;;1.10;99.90;;;;;;5072892;28;20085;-55
2022/01/10 01:58:31;;;;;;;7.22;6.05;;;1.10;99.90;;;;;;5091327;28;20382;-54
2022/01/10 02:00:57;;;;;;;9.98;4.75;;;1.10;99.90;;;;;;5091077;28;20460;-56
2022/01/10 02:03:23;;;;;;;8.32;4.57;;;1.10;99.90;;;;;;5095161;28;20028;-55
2022/01/10 02:05:48;;;;;;;10.85;5.80;;;1.10;99.90;;;;;;5094734;28;20028;-53
2022/01/10 02:08:14;;;;;;;8.68;6.07;;;1.10;99.90;;;;;;5094475;28;20535;-55
2022/01/10 02:10:40;;;;;;;6.18;5.07;;;1.10;99.90;;;;;;5093510;28;20031;-55
2022/01/10 02:13:05;;;;;;;12.25;6.85;;;1.00;99.90;;;;;;5093681;28;20024;-55
2022/01/10 02:15:43;;;;;;;4.88;4.47;;;1.00;99.90;;;;;;5093703;28;20031;-54
2022/01/10 02:18:08;;;;;;;5.47;4.45;;;1.00;99.90;;;;;;5093998;28;20024;-56
2022/01/10 02:20:34;;;;;;;9.90;4.85;;;1.00;99.90;;;;;;5093060;28;20411;-54
2022/01/10 02:23:01;;;;;;;8.52;5.47;;;1.00;99.90;;;;;;5093489;28;20508;-56
2022/01/10 02:25:27;;;;;;;5.90;5.38;;;0.90;99.90;;;;;;5093537;28;20032;-56
2022/01/10 02:27:55;;;;;;;5.68;4.60;;;0.90;99.90;;;;;;5093516;28;20062;-55
2022/01/10 02:30:21;;;;;;;7.13;5.22;;;0.90;99.90;;;;;;5093431;28;20024;-57
2022/01/10 02:32:47;;;;;;;6.85;5.78;;;1.00;99.90;;;;;;5093362;28;20036;-54
2022/01/10 02:35:49;;;;;;;6.47;5.85;;;1.00;99.90;;;;;;5094122;28;20032;-53
2022/01/10 02:38:15;;;;;;;11.38;5.40;;;1.00;99.90;;;;;;5093558;28;20032;-56
2022/01/10 02:40:41;;;;;;;6.35;5.18;;;1.10;99.90;;;;;;5093140;28;20255;-55
2022/01/10 02:43:08;;;;;;;8.50;5.90;;;1.10;99.90;;;;;;5092804;28;20024;-56
2022/01/10 02:45:34;;;;;;;5.30;4.70;;;1.10;99.90;;;;;;5092764;28;20024;-55
2022/01/10 02:47:59;;;;;;;5.97;5.13;;;1.10;99.90;;;;;;5093151;28;20024;-56
2022/01/10 02:50:25;;;;;;;6.90;5.70;;;1.10;99.90;;;;;;5092881;28;20035;-55
2022/01/10 02:52:51;;;;;;;6.18;5.57;;;1.10;99.90;;;;;;5092324;28;20630;-54
2022/01/10 02:55:17;;;;;;;8.23;5.90;;;1.10;99.90;;;;;;5092423;28;20392;-52
2022/01/10 02:57:43;;;;;;;7.82;5.50;;;1.20;99.90;;;;;;5092996;28;20055;-53
2022/01/10 03:00:14;;;;;;;11.32;4.80;;;1.20;99.90;;;;;;5092810;28;20498;-55
2022/01/10 03:02:42;;;;;;;7.65;5.35;;;1.20;99.90;;;;;;5093590;28;20084;-55
2022/01/10 03:05:09;;;;;;;5.85;5.10;;;1.20;99.90;;;;;;5069170;28;20069;-55
2022/01/10 03:07:35;;;;;;;9.43;6.70;;;1.20;99.90;;;;;;5073280;28;20147;-57
2022/01/10 03:10:00;;;;;;;9.35;4.93;;;1.20;99.90;;;;;;5082993;28;20123;-57
2022/01/10 03:12:30;;;;;;;8.15;5.63;;;1.20;99.90;;;;;;5092880;28;20028;-54
2022/01/10 03:14:57;;;;;;;7.95;5.43;;;1.20;99.90;;;;;;5074963;28;20451;-56
2022/01/10 03:17:22;;;;;;;6.10;5.47;;;1.20;99.90;;;;;;5093455;28;20053;-56
2022/01/10 03:19:48;;;;;;;8.90;6.28;;;1.20;99.90;;;;;;5092969;28;20484;-53
2022/01/10 03:22:14;;;;;;;8.80;5.63;;;1.20;99.90;;;;;;5074858;28;20383;-55
2022/01/10 03:24:39;;;;;;;8.40;5.55;;;1.20;99.90;;;;;;5093009;28;20027;-55
2022/01/10 03:27:05;;;;;;;6.72;5.43;;;1.20;99.90;;;;;;5093176;28;20169;-54
2022/01/10 03:29:31;;;;;;;6.95;5.22;;;1.30;99.90;;;;;;5092932;28;20435;-53
2022/01/10 03:31:56;;;;;;;6.28;5.15;;;1.20;99.90;;;;;;5093180;28;20024;-52
2022/01/10 03:34:22;;;;;;;8.13;5.32;;;1.20;99.90;;;;;;5075237;28;20028;-55
2022/01/10 03:36:48;;;;;;;8.23;5.38;;;1.20;99.90;;;;;;5092733;28;20024;-56
2022/01/10 03:39:14;;;;;;;5.53;4.95;;;1.30;99.90;;;;;;5093237;28;20032;-56
2022/01/10 03:41:41;;;;;;;8.55;6.15;;;1.30;99.90;;;;;;5092510;28;20035;-57
2022/01/10 03:44:07;;;;;;;5.65;5.07;;;1.30;99.90;;;;;;5092725;28;20346;-55
2022/01/10 03:46:33;;;;;;;11.02;5.60;;;1.20;99.90;;;;;;5092611;28;20028;-55
2022/01/10 03:49:00;;;;;;;7.68;5.95;;;1.20;99.90;;;;;;5092964;28;20020;-55
2022/01/10 03:51:26;;;;;;;6.22;5.60;;;1.10;99.90;;;;;;5074270;28;20123;-55
2022/01/10 03:53:52;;;;;;;11.63;6.18;;;1.10;99.90;;;;;;5092699;28;20111;-56
2022/01/10 03:56:19;;;;;;;8.38;6.32;;;1.10;99.90;;;;;;5092514;28;20135;-55
2022/01/10 03:58:44;;;;;;;15.38;7.18;;;1.20;99.90;;;;;;5092561;28;20101;-55
2022/01/10 04:01:12;;;;;;;14.00;6.78;;;1.10;99.90;;;;;;5092390;28;20031;-56
2022/01/10 04:03:38;;;;;;;6.65;5.45;;;1.20;99.90;;;;;;5074060;28;20035;-52
2022/01/10 04:06:05;;;;;;;8.15;6.03;;;1.10;99.90;;;;;;5092215;28;20032;-54
2022/01/10 04:08:30;;;;;;;9.80;6.20;;;1.20;99.90;;;;;;5092363;28;20036;-52
2022/01/10 04:10:56;;;;;;;9.30;6.95;;;1.10;99.90;;;;;;5092382;28;20042;-56
2022/01/10 04:13:23;;;;;;;9.15;6.63;;;1.10;99.90;;;;;;5092356;28;20371;-54
2022/01/10 04:15:49;;;;;;;13.00;6.07;;;1.20;99.90;;;;;;5091851;28;20462;-55
2022/01/10 04:18:15;;;;;;;11.68;6.57;;;1.20;99.90;;;;;;5091369;28;20058;-56
2022/01/10 04:20:42;;;;;;;12.93;6.53;;;1.20;99.90;;;;;;5073360;28;20119;-57
2022/01/10 04:23:07;;;;;;;8.82;7.00;;;1.30;99.90;;;;;;5092020;28;20490;-56
2022/01/10 04:25:33;;;;;;;11.02;7.15;;;1.30;99.90;;;;;;5091570;28;20062;-56
2022/01/10 04:27:59;;;;;;;8.05;6.70;;;1.40;99.90;;;;;;5092197;28;20107;-55
2022/01/10 04:30:24;;;;;;;11.60;7.15;;;1.30;99.90;;;;;;5092024;28;20068;-56
2022/01/10 04:32:50;;;;;;;13.32;6.72;;;1.40;99.90;;;;;;5091455;28;20024;-56
2022/01/10 04:35:15;;;;;;;8.15;6.03;;;1.30;99.90;;;;;;5092026;28;20089;-57
2022/01/10 04:37:41;;;;;;;7.57;6.22;;;1.40;99.90;;;;;;5091781;28;20105;-56
2022/01/10 04:40:08;;;;;;;10.57;6.97;;;1.50;99.90;;;;;;5091781;28;20055;-56
2022/01/10 04:42:34;;;;;;;6.78;6.07;;;1.50;99.90;;;;;;5091537;28;20020;-54
2022/01/10 04:45:00;;;;;;;8.38;6.40;;;1.50;99.90;;;;;;5091571;28;20027;-57
2022/01/10 04:47:26;;;;;;;11.00;9.23;;;1.60;99.90;;;;;;5091704;28;20035;-55
2022/01/10 04:52:29;;;;;;;13.05;7.30;;;1.50;99.90;;;;;;5089667;28;20028;-55
2022/01/10 04:54:55;;;;;;;10.77;7.35;;;1.50;99.90;;;;;;5073207;28;20040;-55
2022/01/10 04:57:21;;;;;;;12.93;9.18;;;1.60;99.90;;;;;;5090105;28;20077;-56
2022/01/10 04:59:46;;;;;;;8.77;7.82;;;1.60;99.90;;;;;;5091061;28;20039;-56
2022/01/10 05:02:12;;;;;;;11.63;8.30;;;1.60;99.90;;;;;;5090460;28;20027;-54
2022/01/10 05:04:39;;;;;;;12.57;8.98;;;1.60;99.90;;;;;;5091018;28;20097;-55
2022/01/10 05:07:05;;;;;;;14.77;9.85;;;1.60;99.90;;;;;;5091411;28;20032;-54
2022/01/10 05:09:31;;;;;;;11.18;9.32;;;1.60;99.90;;;;;;5090693;28;20650;-55
2022/01/10 05:11:58;;;;;;;10.90;8.77;;;1.60;99.90;;;;;;5090480;28;20032;-53
2022/01/10 05:14:23;;;;;;;12.80;9.07;;;1.60;99.90;;;;;;5090994;28;20039;-53
2022/01/10 05:16:49;;;;;;;12.65;8.93;;;1.50;99.90;;;;;;5090926;28;20025;-56
2022/01/10 05:19:15;;;;;;;10.73;8.63;;;1.50;99.90;;;;;;5090362;28;20032;-56
2022/01/10 05:21:41;;;;;;;14.32;9.52;;;1.50;99.90;;;;;;5089860;28;20039;-56
2022/01/10 05:24:07;;;;;;;13.70;10.45;;;1.50;99.90;;;;;;5090719;28;20132;-55
2022/01/10 05:26:33;;;;;;;16.95;12.98;;;1.40;99.90;;;;;;5090936;28;20039;-54
2022/01/10 05:29:01;;;;;;;12.45;10.75;;;1.40;99.90;;;;;;5091286;28;20073;-55
2022/01/10 05:31:28;;;;;;;15.60;9.50;;;1.40;99.90;;;;;;5091130;28;20024;-57
2022/01/10 05:33:54;;;;;;;13.52;10.35;;;1.40;99.90;;;;;;5073150;28;20024;-56
2022/01/10 05:36:20;;;;;;;13.13;10.20;;;1.40;99.90;;;;;;5091982;28;20023;-56
2022/01/10 05:38:46;;;;;;;17.63;10.32;;;1.40;99.90;;;;;;5095177;28;20032;-53
2022/01/10 05:41:12;;;;;;;12.43;10.07;;;1.50;99.90;;;;;;5095342;28;20039;-56
2022/01/10 05:43:38;;;;;;;25.58;12.15;;;1.40;99.90;;;;;;5095309;28;20368;-55
2022/01/10 05:46:07;;;;;;;17.42;10.85;;;1.40;99.90;;;;;;5095364;28;20629;-52
2022/01/10 05:48:35;;;;;;;14.65;10.15;;;1.40;99.90;;;;;;5095138;28;20130;-56
2022/01/10 05:51:01;;;;;;;16.67;11.82;;;1.30;99.90;;;;;;5094738;28;20098;-57
2022/01/10 05:53:27;;;;;;;18.05;11.82;;;1.30;99.90;;;;;;5094767;28;20031;-57
2022/01/10 05:55:53;;;;;;;21.88;14.13;;;1.40;99.90;;;;;;5094489;28;20379;-55
2022/01/10 05:58:19;;;;;;;20.92;13.30;;;1.40;99.90;;;;;;5094865;28;20060;-54
2022/01/10 06:00:45;;;;;;;21.42;11.95;;;1.40;99.90;;;;;;5075436;28;20039;-56
2022/01/10 06:03:11;;;;;;;17.42;13.50;;;1.30;99.90;;;;;;5094559;28;20050;-56
2022/01/10 06:05:37;;;;;;;19.55;13.00;;;1.30;99.90;;;;;;5093469;28;20020;-56
2022/01/10 06:08:05;;;;;;;18.13;11.98;;;1.40;99.90;;;;;;5094430;28;20013;-55
2022/01/10 06:10:31;;;;;;;17.98;11.77;;;1.50;99.90;;;;;;5076364;28;20085;-52
2022/01/10 06:12:58;;;;;;;24.23;14.10;;;1.50;99.90;;;;;;5094735;28;20054;-52
2022/01/10 06:15:24;;;;;;;19.55;13.45;;;1.60;99.90;;;;;;5094542;28;20024;-55
2022/01/10 06:17:50;;;;;;;20.70;14.18;;;1.60;99.90;;;;;;5094681;28;20020;-55
2022/01/10 06:20:16;;;;;;;21.48;13.98;;;1.60;99.90;;;;;;5094708;28;20524;-63
2022/01/10 06:22:42;;;;;;;23.77;14.25;;;1.60;99.90;;;;;;5094396;28;20047;-55
2022/01/10 06:25:10;;;;;;;31.65;15.35;;;1.50;99.90;;;;;;5094571;28;20428;-55
2022/01/10 06:27:35;;;;;;;20.98;15.10;;;1.50;99.90;;;;;;5094328;28;20382;-56
2022/01/10 06:30:02;;;;;;;18.73;13.82;;;1.60;99.90;;;;;;5094464;28;20024;-57
2022/01/10 06:32:27;;;;;;;23.20;14.73;;;1.70;99.90;;;;;;5094201;28;20368;-54
2022/01/10 06:34:53;;;;;;;18.42;14.80;;;1.70;99.90;;;;;;5094479;28;20054;-57
2022/01/10 06:37:19;;;;;;;35.72;20.25;;;1.70;99.90;;;;;;5094231;28;20020;-53
2022/01/10 06:39:45;;;;;;;32.08;17.45;;;1.70;99.90;;;;;;5094068;28;20059;-58
2022/01/10 06:42:11;;;;;;;17.65;14.05;;;1.70;99.90;;;;;;5094280;28;20052;-57
2022/01/10 06:44:37;;;;;;;20.17;13.80;;;1.80;99.90;;;;;;5093830;28;20050;-55
2022/01/10 06:47:03;;;;;;;20.60;13.65;;;1.80;99.90;;;;;;5093750;28;20020;-57
2022/01/10 06:49:29;;;;;;;19.85;12.65;;;1.90;99.90;;;;;;5093710;28;20598;-56
2022/01/10 06:51:54;;;;;;;22.70;13.57;;;1.90;99.90;;;;;;5094103;28;20032;-55
2022/01/10 06:54:20;;;;;;;24.58;15.30;;;1.80;99.90;;;;;;5093848;28;20573;-55
2022/01/10 06:56:46;;;;;;;21.02;15.15;;;1.80;99.90;;;;;;5093783;28;20118;-57
2022/01/10 06:59:12;;;;;;;26.00;18.17;;;1.80;99.90;;;;;;5094043;28;20020;-55
2022/01/10 07:01:37;;;;;;;27.35;17.77;;;1.80;99.90;;;;;;5075487;28;20081;-53
2022/01/10 07:04:03;;;;;;;28.83;20.90;;;1.80;99.90;;;;;;5075596;28;20024;-57
2022/01/10 07:06:29;;;;;;;25.67;15.70;;;1.80;99.90;;;;;;5093579;28;20467;-57
2022/01/10 07:08:55;;;;;;;29.88;17.25;;;1.80;99.90;;;;;;5093733;28;20025;-57
2022/01/10 07:11:21;;;;;;;21.20;14.48;;;1.80;99.90;;;;;;5093547;28;20020;-55
2022/01/10 07:13:47;;;;;;;20.58;14.73;;;1.90;99.90;;;;;;5093532;28;20049;-57
2022/01/10 07:16:13;;;;;;;25.20;13.90;;;1.80;99.90;;;;;;5093737;28;20062;-57
2022/01/10 07:18:39;;;;;;;21.58;15.30;;;1.90;99.90;;;;;;5093351;28;20447;-57
2022/01/10 07:21:05;;;;;;;24.63;15.15;;;1.90;99.90;;;;;;5093592;28;20093;-55
2022/01/10 07:23:31;;;;;;;21.83;14.20;;;1.90;99.90;;;;;;5093289;28;20370;-57
2022/01/10 07:25:56;;;;;;;24.20;15.35;;;2.00;99.90;;;;;;5093415;28;20042;-56
2022/01/10 07:28:22;;;;;;;26.48;14.35;;;2.00;99.90;;;;;;5092260;28;20027;-57
2022/01/10 07:30:49;;;;;;;21.67;13.50;;;2.00;99.90;;;;;;5091775;28;20043;-57
2022/01/10 07:33:15;;;;;;;19.90;13.75;;;2.00;99.90;;;;;;5091821;28;20024;-55
2022/01/10 07:35:41;;;;;;;23.63;13.40;;;2.10;99.90;;;;;;5091590;28;20028;-57
2022/01/10 07:38:07;;;;;;;22.25;15.32;;;2.10;99.90;;;;;;5091950;28;20532;-56
2022/01/10 07:40:33;;;;;;;31.13;17.65;;;2.00;99.90;;;;;;5091599;28;20028;-56
2022/01/10 07:42:59;;;;;;;24.10;15.52;;;1.90;99.90;;;;;;5091814;28;20062;-56
2022/01/10 07:45:24;;;;;;;25.92;14.13;;;1.90;99.90;;;;;;5091737;28;20020;-58
2022/01/10 07:47:50;;;;;;;24.52;13.93;;;1.90;99.90;;;;;;5091504;28;20028;-57
2022/01/10 07:50:16;;;;;;;21.83;14.85;;;1.90;99.90;;;;;;5091803;28;20474;-57
2022/01/10 07:52:42;;;;;;;29.20;17.27;;;1.90;99.90;;;;;;5073194;28;20060;-57
2022/01/10 07:55:08;;;;;;;29.15;18.45;;;1.90;99.90;;;;;;5091356;28;20044;-58
2022/01/10 07:57:34;;;;;;;35.92;16.33;;;1.90;99.90;;;;;;5091282;28;20030;-55
2022/01/10 08:00:00;;;;;;;45.97;24.15;;;1.90;99.90;;;;;;5090542;28;20027;-56
2022/01/10 08:02:26;;;;;;;22.90;15.82;;;1.90;99.90;;;;;;5091385;28;20056;-56
2022/01/10 08:04:52;;;;;;;24.52;16.25;;;1.80;99.90;;;;;;5091265;28;20432;-56
2022/01/10 08:07:17;;;;;;;26.50;15.05;;;1.90;99.90;;;;;;5091361;28;20020;-57
2022/01/10 08:09:43;;;;;;;21.92;13.98;;;1.90;99.90;;;;;;5091199;28;20028;-57
2022/01/10 08:12:09;;;;;;;25.58;18.08;;;1.90;99.90;;;;;;5091237;28;20038;-56
2022/01/10 08:14:36;;;;;;;21.25;15.35;;;2.00;99.90;;;;;;5090885;28;20044;-56
2022/01/10 08:17:02;;;;;;;18.98;13.55;;;2.20;99.90;;;;;;5091135;28;20024;-58
2022/01/10 08:19:30;;;;;;;21.60;14.55;;;2.30;99.90;;;;;;5091019;28;20016;-56
2022/01/10 08:21:56;;;;;;;22.70;14.88;;;2.30;99.90;;;;;;5090925;28;20024;-56
2022/01/10 08:24:23;;;;;;;26.10;16.35;;;2.30;99.90;;;;;;5091197;28;20024;-57
2022/01/10 08:26:54;;;;;;;25.88;14.75;;;2.30;99.90;;;;;;5090792;28;20081;-56
2022/01/10 08:29:20;;;;;;;29.77;17.40;;;2.30;99.90;;;;;;5090949;28;20020;-58
2022/01/10 08:31:46;;;;;;;20.45;15.07;;;2.20;99.90;;;;;;5090688;28;20485;-57
2022/01/10 08:34:12;;;;;;;25.13;15.63;;;2.20;99.90;;;;;;5092250;28;20015;-56
2022/01/10 08:36:38;;;;;;;28.05;17.52;;;2.20;99.90;;;;;;5091900;28;20024;-58
2022/01/10 08:39:05;;;;;;;23.80;17.73;;;2.10;99.90;;;;;;5091259;28;20341;-58
2022/01/10 08:41:31;;;;;;;29.08;16.73;;;2.10;99.90;;;;;;5091330;28;20482;-56
2022/01/10 08:43:57;;;;;;;26.98;16.35;;;2.10;99.90;;;;;;5091780;28;20028;-55
2022/01/10 08:46:23;;;;;;;22.00;15.30;;;2.10;99.90;;;;;;5092045;28;20032;-57
2022/01/10 08:48:50;;;;;;;22.38;16.20;;;2.10;99.90;;;;;;5091775;28;20053;-57
2022/01/10 08:51:16;;;;;;;23.13;17.10;;;2.10;99.90;;;;;;5091917;28;20062;-57
2022/01/10 08:53:42;;;;;;;26.10;16.95;;;2.10;99.90;;;;;;5091575;28;20024;-56
2022/01/10 08:56:08;;;;;;;25.65;17.88;;;2.10;99.90;;;;;;5091646;28;20505;-56
2022/01/10 08:58:34;;;;;;;27.05;17.27;;;2.20;99.90;;;;;;5091680;28;20028;-56
2022/01/10 09:01:01;;;;;;;21.35;15.45;;;2.30;99.90;;;;;;5091632;28;20028;-55
2022/01/10 09:03:27;;;;;;;30.10;19.65;;;2.40;99.90;;;;;;5091639;28;20025;-56
2022/01/10 09:05:55;;;;;;;26.33;16.98;;;2.40;99.90;;;;;;5091033;28;20387;-54
2022/01/10 09:08:22;;;;;;;29.40;18.05;;;2.50;99.90;;;;;;5090073;28;20052;-56
2022/01/10 09:10:48;;;;;;;29.23;20.42;;;2.50;99.90;;;;;;5090198;28;20063;-55
2022/01/10 09:13:13;;;;;;;26.73;16.70;;;2.50;99.90;;;;;;5089309;28;20051;-54
2022/01/10 09:15:39;;;;;;;23.23;17.13;;;2.60;99.90;;;;;;5090223;28;20077;-52
2022/01/10 09:18:05;;;;;;;31.10;17.48;;;2.60;99.90;;;;;;5090292;28;20023;-53
2022/01/10 09:20:31;;;;;;;23.75;17.35;;;2.60;99.90;;;;;;5089883;28;20331;-55
2022/01/10 09:22:56;;;;;;;28.60;18.83;;;2.60;99.90;;;;;;5090224;28;20043;-55
2022/01/10 09:25:22;;;;;;;23.10;16.10;;;2.60;99.90;;;;;;5090750;28;20020;-52
2022/01/10 09:27:48;;;;;;;27.90;15.90;;;2.70;99.90;;;;;;5090114;28;20039;-54
2022/01/10 09:30:14;;;;;;;22.85;16.20;;;2.70;99.90;;;;;;5090263;28;20368;-53
2022/01/10 09:32:40;;;;;;;30.80;19.52;;;2.80;99.90;;;;;;5089686;28;20062;-52
2022/01/10 09:35:07;;;;;;;30.17;17.50;;;2.70;99.90;;;;;;5072078;28;20281;-54
2022/01/10 09:37:33;;;;;;;19.48;15.25;;;2.70;99.90;;;;;;5089981;28;20020;-53
2022/01/10 09:39:58;;;;;;;28.20;17.02;;;2.70;99.90;;;;;;5089996;28;20031;-55
2022/01/10 09:42:24;;;;;;;157.55;53.85;;;2.70;99.90;;;;;;5089932;28;20043;-53
2022/01/10 09:44:51;;;;;;;21.67;16.20;;;2.80;99.90;;;;;;5090018;28;20059;-56
2022/01/10 09:47:17;;;;;;;95.90;35.88;;;2.80;99.90;;;;;;5090111;28;20471;-55
2022/01/10 09:49:42;;;;;;;25.63;17.00;;;2.80;99.90;;;;;;5089946;28;20020;-55
2022/01/10 09:52:08;;;;;;;26.45;19.15;;;2.80;99.90;;;;;;5089739;28;20055;-54
2022/01/10 09:54:34;;;;;;;25.73;16.30;;;2.70;99.90;;;;;;5071553;28;20052;-54
2022/01/10 09:56:59;;;;;;;24.05;15.80;;;2.70;99.90;;;;;;5089850;28;20034;-56
2022/01/10 09:59:26;;;;;;;26.15;15.85;;;2.70;99.90;;;;;;5089825;28;20459;-56
2022/01/10 10:01:52;;;;;;;22.92;15.18;;;2.70;99.90;;;;;;5089710;28;20024;-56
2022/01/10 10:04:19;;;;;;;25.52;16.27;;;2.90;99.90;;;;;;5090010;28;20031;-55
2022/01/10 10:06:45;;;;;;;21.85;16.58;;;2.90;99.90;;;;;;5089565;28;20048;-56
2022/01/10 10:09:11;;;;;;;28.20;16.48;;;2.80;99.90;;;;;;5089790;28;20020;-55
2022/01/10 10:11:48;;;;;;;24.00;15.52;;;3.00;99.90;;;;;;5089910;28;20122;-54
2022/01/10 10:14:20;;;;;;;26.25;17.38;;;3.00;99.90;;;;;;5091061;28;20028;-56
2022/01/10 10:16:51;;;;;;;29.08;18.00;;;2.90;99.90;;;;;;5090802;28;20036;-57
2022/01/10 10:19:22;;;;;;;25.85;15.20;;;2.90;99.90;;;;;;5075872;28;20044;-56
2022/01/10 10:21:49;;;;;;;49.97;24.52;;;2.90;99.90;;;;;;5070312;28;20032;-55
2022/01/10 10:24:15;;;;;;;21.45;14.93;;;2.80;99.90;;;;;;5074193;28;20031;-54
2022/01/10 10:26:41;;;;;;;57.13;29.02;;;3.00;99.90;;;;;;5073927;28;20036;-56
2022/01/10 10:29:09;;;;;;;84.80;41.08;;;3.00;99.90;;;;;;5074090;28;20024;-56
2022/01/10 10:31:41;;;;;;;21.05;14.85;;;3.00;99.90;;;;;;5081405;28;20607;-56
2022/01/10 10:34:07;;;;;;;20.77;13.27;;;3.00;99.90;;;;;;5091217;28;20020;-53
2022/01/10 10:36:35;;;;;;;22.77;14.93;;;2.90;99.90;;;;;;5093885;28;20077;-56
2022/01/10 10:39:06;;;;;;;22.90;15.68;;;3.00;99.90;;;;;;5094355;28;20085;-56
2022/01/10 10:41:36;;;;;;;28.27;17.40;;;3.10;99.90;;;;;;5093900;28;20085;-56
2022/01/10 10:44:03;;;;;;;26.08;14.02;;;3.00;99.90;;;;;;5093654;28;20458;-56
2022/01/10 10:46:29;;;;;;;18.63;12.50;;;3.00;99.90;;;;;;5093480;28;20032;-56
2022/01/10 10:49:04;;;;;;;22.15;15.02;;;3.00;99.90;;;;;;5093962;28;20016;-56
2022/01/10 10:51:35;;;;;;;22.10;12.15;;;3.10;99.90;;;;;;5092872;28;20055;-55
2022/01/10 10:54:06;;;;;;;24.27;13.65;;;3.10;99.90;;;;;;5093914;28;20039;-57
2022/01/10 10:56:38;;;;;;;28.05;14.60;;;3.00;99.90;;;;;;5093507;28;20066;-57
2022/01/10 10:59:07;;;;;;;19.33;13.10;;;2.90;99.90;;;;;;5093923;28;20016;-55
2022/01/10 11:01:36;;;;;;;30.23;17.80;;;2.90;99.90;;;;;;5092926;28;20024;-57
2022/01/10 11:04:03;;;;;;;25.02;17.33;;;2.70;99.90;;;;;;5093451;28;20099;-58
2022/01/10 11:06:33;;;;;;;28.70;18.90;;;2.70;99.90;;;;;;5093344;28;20024;-64
2022/01/10 11:09:05;;;;;;;32.40;19.98;;;2.60;99.90;;;;;;5093501;28;20332;-57
2022/01/10 11:11:31;;;;;;;40.08;21.35;;;2.60;99.90;;;;;;5093556;28;20050;-57
2022/01/10 11:13:58;;;;;;;71.65;31.20;;;2.60;99.90;;;;;;5093392;28;20028;-54
2022/01/10 11:16:25;;;;;;;31.98;19.98;;;2.80;99.90;;;;;;5093735;28;20111;-57
2022/01/10 11:18:51;;;;;;;75.70;37.63;;;3.00;99.90;;;;;;5093279;28;20016;-58
2022/01/10 11:21:17;;;;;;;49.85;25.65;;;3.20;99.90;;;;;;5093462;28;20074;-55
2022/01/10 11:23:45;;;;;;;24.55;16.35;;;3.40;99.90;;;;;;5093227;28;20512;-58
2022/01/10 11:26:12;;;;;;;21.27;15.95;;;3.50;99.90;;;;;;5075520;28;20532;-58
2022/01/10 11:28:48;;;;;;;19.42;15.02;;;3.50;99.90;;;;;;5092970;28;20019;-58
2022/01/10 11:31:20;;;;;;;23.08;15.25;;;3.60;99.90;;;;;;5093069;28;20020;-58
2022/01/10 11:33:46;;;;;;;23.75;16.67;;;3.80;99.90;;;;;;5091660;28;20514;-57
2022/01/10 11:36:13;;;;;;;31.88;17.55;;;3.80;99.90;;;;;;5092865;28;20024;-57
2022/01/10 11:38:44;;;;;;;24.13;15.00;;;4.00;99.90;;;;;;5092848;28;20020;-57
2022/01/10 11:41:18;;;;;;;21.63;15.32;;;3.90;99.90;;;;;;5092770;28;20032;-55
2022/01/10 11:43:52;;;;;;;24.42;16.35;;;3.70;99.90;;;;;;5092949;28;20103;-57
2022/01/10 11:46:39;;;;;;;19.98;14.52;;;3.50;99.90;;;;;;5085726;28;20023;-57
2022/01/10 11:49:08;;;;;;;20.05;14.43;;;3.60;99.90;;;;;;5101015;28;20726;-56
2022/01/10 11:51:52;;;;;;;18.70;14.48;;;3.40;99.90;;;;;;5081911;28;20043;-56
2022/01/10 11:54:26;;;;;;;36.00;18.88;;;3.20;99.90;;;;;;5081896;28;20034;-56
2022/01/10 11:57:07;;;;;;;24.83;15.45;;;3.20;99.90;;;;;;5082103;28;20126;-57
2022/01/10 11:59:35;;;;;;;26.00;15.15;;;3.20;99.90;;;;;;5081723;28;20031;-56
2022/01/10 12:02:05;;;;;;;20.25;13.95;;;3.40;99.90;;;;;;5081982;28;20108;-55
2022/01/10 12:04:36;;;;;;;21.40;15.35;;;3.60;99.90;;;;;;5083315;28;20058;-56
2022/01/10 12:07:05;;;;;;;24.63;15.48;;;3.40;99.90;;;;;;5096789;28;20231;-58
2022/01/10 12:09:32;;;;;;;24.17;16.65;;;3.30;99.90;;;;;;5081380;28;20032;-56
2022/01/10 12:11:59;;;;;;;17.27;12.98;;;3.40;99.90;;;;;;5081905;28;20065;-57
2022/01/10 12:14:26;;;;;;;18.08;13.23;;;3.60;99.90;;;;;;5080991;28;20054;-56
2022/01/10 12:16:52;;;;;;;26.02;16.25;;;3.70;99.90;;;;;;5081305;28;20043;-57
2022/01/10 12:19:19;;;;;;;37.78;18.33;;;3.80;99.90;;;;;;5082021;28;20379;-56
2022/01/10 12:21:45;;;;;;;19.83;13.02;;;3.70;99.90;;;;;;5080596;28;20040;-57
2022/01/10 12:24:13;;;;;;;16.60;12.15;;;3.90;99.90;;;;;;5081278;28;20407;-57
2022/01/10 12:26:39;;;;;;;20.85;14.52;;;3.60;99.90;;;;;;5078524;28;20031;-56
2022/01/10 12:29:07;;;;;;;17.33;11.65;;;3.60;99.90;;;;;;5063108;28;20020;-56
2022/01/10 12:31:34;;;;;;;26.67;15.65;;;3.50;99.90;;;;;;5080773;28;20040;-58
2022/01/10 12:34:01;;;;;;;22.42;13.98;;;3.60;99.90;;;;;;5081681;28;20060;-56
2022/01/10 12:36:28;;;;;;;16.73;11.65;;;3.60;99.90;;;;;;5081509;28;20040;-58
2022/01/10 12:38:58;;;;;;;15.50;11.75;;;3.70;99.90;;;;;;5062564;28;20036;-57
2022/01/10 12:41:25;;;;;;;20.10;11.85;;;3.70;99.90;;;;;;5079674;28;20035;-58
2022/01/10 12:43:51;;;;;;;14.70;11.35;;;3.90;99.90;;;;;;5080813;28;20027;-57
2022/01/10 12:46:18;;;;;;;25.42;14.55;;;3.80;99.90;;;;;;5100190;28;20057;-57
2022/01/10 12:48:46;;;;;;;14.70;11.43;;;3.60;99.90;;;;;;5082529;28;20024;-58
2022/01/10 12:51:13;;;;;;;18.40;11.43;;;3.80;99.90;;;;;;5101350;28;20036;-57
2022/01/10 12:53:40;;;;;;;17.27;11.63;;;3.70;99.90;;;;;;5101528;28;20413;-58
2022/01/10 12:56:05;;;;;;;44.53;18.98;;;3.70;99.90;;;;;;5100264;28;20059;-58
2022/01/10 12:58:34;;;;;;;26.90;13.70;;;3.50;99.90;;;;;;5110224;28;20042;-56